Time;durP1;ratioP1;P1;durP2;ratioP2;P2;SDS_P1;SDS_P2;PMS_P1;PMS_P2;Temp;Humidity;BMP_temperature;BMP_pressure;BME280_temperature;BME280_humidity;BME280_pressure;Samples;Min_cycle;Max_cycle;Signal;HPM_P1;HPM_P2
2023/06/10 00:01:28;;;;;;;1.33;1.17;;;;;;;;;;5062252;28;20040;-62
2023/06/10 00:03:54;;;;;;;1.02;0.95;;;;;;;;;;5062135;28;20041;-62
2023/06/10 00:06:24;;;;;;;1.60;1.30;;;;;;;;;;5062873;28;20040;-62
2023/06/10 00:08:50;;;;;;;1.25;1.13;;;;;;;;;;5061484;28;20060;-62
2023/06/10 00:11:16;;;;;;;0.90;0.90;;;;;;;;;;5063074;28;20140;-62
2023/06/10 00:13:42;;;;;;;1.27;1.13;;;;;;;;;;5062363;28;20123;-62
2023/06/10 00:16:08;;;;;;;1.50;1.40;;;;;;;;;;5062238;28;20148;-62
2023/06/10 00:18:36;;;;;;;1.55;1.40;;;;;;;;;;5062558;28;20044;-62
2023/06/10 00:21:04;;;;;;;2.40;1.23;;;;;;;;;;5062033;28;20032;-62
2023/06/10 00:23:31;;;;;;;1.40;1.17;;;;;;;;;;5063298;28;20121;-62
2023/06/10 00:26:00;;;;;;;1.50;1.40;;;;;;;;;;5066473;28;20099;-62
2023/06/10 00:28:26;;;;;;;1.02;1.00;;;;;;;;;;5065796;28;20056;-62
2023/06/10 00:30:52;;;;;;;1.27;1.10;;;;;;;;;;5066059;28;20044;-61
2023/06/10 00:33:18;;;;;;;1.35;1.25;;;;;;;;;;5048411;28;20420;-61
2023/06/10 00:35:44;;;;;;;1.50;1.35;;;;;;;;;;5066179;28;20048;-61
2023/06/10 00:38:10;;;;;;;0.82;0.82;;;;;;;;;;5066152;28;20427;-62
2023/06/10 00:40:40;;;;;;;1.50;1.40;;;;;;;;;;5066302;28;20379;-62
2023/06/10 00:43:07;;;;;;;0.98;0.90;;;;;;;;;;5065766;28;20668;-62
2023/06/10 00:45:33;;;;;;;1.30;1.20;;;;;;;;;;5066409;28;20076;-62
2023/06/10 00:48:00;;;;;;;1.80;1.23;;;;;;;;;;5048638;28;20145;-62
2023/06/10 00:50:26;;;;;;;1.30;1.00;;;;;;;;;;5065710;28;20040;-61
2023/06/10 00:52:52;;;;;;;1.02;0.85;;;;;;;;;;5065769;28;20119;-61
2023/06/10 00:55:18;;;;;;;1.10;1.00;;;;;;;;;;5065976;28;20084;-62
2023/06/10 00:57:45;;;;;;;1.20;1.10;;;;;;;;;;5065513;28;20044;-62
2023/06/10 01:00:12;;;;;;;1.40;1.30;;;;;;;;;;5066151;28;20394;-62
2023/06/10 01:02:38;;;;;;;1.10;0.93;;;;;;;;;;5066004;28;20044;-61
2023/06/10 01:05:05;;;;;;;0.98;0.98;;;;;;;;;;5065019;28;20041;-62
2023/06/10 01:07:37;;;;;;;1.05;1.00;;;;;;;;;;5065837;28;20044;-62
2023/06/10 01:10:16;;;;;;;1.48;1.20;;;;;;;;;;5064514;28;20061;-62
2023/06/10 01:12:50;;;;;;;1.23;1.13;;;;;;;;;;5048568;28;20059;-62
2023/06/10 01:15:17;;;;;;;1.55;1.35;;;;;;;;;;5065548;28;20514;-62
2023/06/10 01:17:59;;;;;;;1.40;1.30;;;;;;;;;;5065336;28;20044;-62
2023/06/10 01:20:29;;;;;;;6.80;1.58;;;;;;;;;;5065479;28;20120;-62
2023/06/10 01:22:57;;;;;;;1.60;1.27;;;;;;;;;;5064788;28;20040;-62
2023/06/10 01:25:27;;;;;;;2.10;1.70;;;;;;;;;;5064570;28;20457;-62
2023/06/10 01:28:13;;;;;;;1.67;1.33;;;;;;;;;;5065169;28;20059;-62
2023/06/10 01:31:02;;;;;;;1.67;1.58;;;;;;;;;;5065028;28;20442;-62
2023/06/10 01:33:30;;;;;;;2.30;2.10;;;;;;;;;;5064916;28;20045;-62
2023/06/10 01:35:58;;;;;;;2.53;1.90;;;;;;;;;;5063626;28;20086;-62
2023/06/10 01:38:25;;;;;;;2.00;1.80;;;;;;;;;;5064714;28;20362;-62
2023/06/10 01:40:53;;;;;;;1.83;1.73;;;;;;;;;;5064597;28;20503;-61
2023/06/10 01:43:20;;;;;;;1.80;1.70;;;;;;;;;;5064747;28;20515;-61
2023/06/10 01:45:46;;;;;;;1.58;1.48;;;;;;;;;;5063887;28;20519;-61
2023/06/10 01:48:12;;;;;;;2.22;2.03;;;;;;;;;;5065300;28;20055;-61
2023/06/10 01:50:38;;;;;;;1.40;1.30;;;;;;;;;;5064897;28;20048;-62
2023/06/10 01:53:05;;;;;;;2.30;1.98;;;;;;;;;;5063772;28;20052;-61
2023/06/10 01:55:31;;;;;;;2.95;2.42;;;;;;;;;;5064800;28;20189;-61
2023/06/10 01:57:57;;;;;;;2.45;2.10;;;;;;;;;;5064381;28;20045;-62
2023/06/10 02:00:23;;;;;;;2.22;1.80;;;;;;;;;;5064033;28;20041;-61
2023/06/10 02:02:49;;;;;;;2.10;1.90;;;;;;;;;;5064181;28;20097;-61
2023/06/10 02:05:16;;;;;;;1.70;1.60;;;;;;;;;;5065218;28;20040;-61
2023/06/10 02:07:42;;;;;;;1.48;1.38;;;;;;;;;;5064340;28;20044;-62
2023/06/10 02:10:08;;;;;;;1.73;1.58;;;;;;;;;;5064173;28;20052;-61
2023/06/10 02:12:34;;;;;;;1.67;1.58;;;;;;;;;;5064715;28;20044;-61
2023/06/10 02:15:00;;;;;;;1.60;1.50;;;;;;;;;;5045977;28;20111;-61
2023/06/10 02:17:26;;;;;;;2.50;1.80;;;;;;;;;;5064393;28;20082;-61
2023/06/10 02:19:52;;;;;;;1.65;1.55;;;;;;;;;;5064343;28;20033;-61
2023/06/10 02:22:21;;;;;;;2.90;2.30;;;;;;;;;;5063582;28;20087;-61
2023/06/10 02:24:47;;;;;;;3.67;2.38;;;;;;;;;;5064134;28;20370;-61
2023/06/10 02:27:13;;;;;;;2.35;2.15;;;;;;;;;;5063980;28;20044;-61
2023/06/10 02:29:39;;;;;;;2.00;1.90;;;;;;;;;;5064152;28;20103;-61
2023/06/10 02:32:05;;;;;;;2.55;1.98;;;;;;;;;;5063591;28;20602;-61
2023/06/10 02:34:31;;;;;;;2.38;2.17;;;;;;;;;;5063305;28;20044;-61
2023/06/10 02:36:57;;;;;;;2.35;1.92;;;;;;;;;;5063522;28;20067;-61
2023/06/10 02:39:23;;;;;;;2.38;2.17;;;;;;;;;;5063824;28;20052;-61
2023/06/10 02:41:49;;;;;;;2.20;2.00;;;;;;;;;;5063273;28;20053;-61
2023/06/10 02:44:15;;;;;;;2.10;1.90;;;;;;;;;;5064462;28;20557;-61
2023/06/10 02:46:41;;;;;;;1.95;1.60;;;;;;;;;;5064087;28;20553;-61
2023/06/10 02:49:07;;;;;;;1.90;1.80;;;;;;;;;;5062862;28;20220;-61
2023/06/10 02:51:33;;;;;;;1.70;1.60;;;;;;;;;;5063828;28;20467;-61
2023/06/10 02:53:59;;;;;;;2.05;1.83;;;;;;;;;;5063728;28;20067;-61
2023/06/10 02:56:25;;;;;;;1.67;1.58;;;;;;;;;;5063269;28;20072;-61
2023/06/10 02:58:51;;;;;;;2.13;1.92;;;;;;;;;;5063211;28;20396;-61
2023/06/10 03:01:18;;;;;;;1.77;1.67;;;;;;;;;;5063816;28;20043;-62
2023/06/10 03:03:46;;;;;;;1.88;1.63;;;;;;;;;;5063391;28;20446;-62
2023/06/10 03:06:12;;;;;;;2.05;1.90;;;;;;;;;;5064103;28;20173;-61
2023/06/10 03:08:38;;;;;;;4.68;2.42;;;;;;;;;;5063306;28;20928;-61
2023/06/10 03:11:05;;;;;;;2.92;1.67;;;;;;;;;;5062590;28;20498;-61
2023/06/10 03:13:31;;;;;;;1.70;1.60;;;;;;;;;;5063181;28;20054;-61
2023/06/10 03:15:57;;;;;;;2.00;1.70;;;;;;;;;;5062905;28;20405;-61
2023/06/10 03:18:26;;;;;;;2.03;1.83;;;;;;;;;;5062609;28;20071;-61
2023/06/10 03:20:52;;;;;;;3.22;1.65;;;;;;;;;;5062994;28;20123;-61
2023/06/10 03:23:18;;;;;;;1.75;1.23;;;;;;;;;;5063254;28;20044;-61
2023/06/10 03:25:44;;;;;;;1.95;1.65;;;;;;;;;;5063159;28;20045;-61
2023/06/10 03:28:10;;;;;;;2.05;1.75;;;;;;;;;;5063273;28;20041;-62
2023/06/10 03:30:36;;;;;;;1.50;1.40;;;;;;;;;;5062763;28;20036;-61
2023/06/10 03:33:03;;;;;;;2.08;1.80;;;;;;;;;;5063327;28;20048;-61
2023/06/10 03:35:29;;;;;;;1.70;1.60;;;;;;;;;;5063145;28;20120;-61
2023/06/10 03:37:55;;;;;;;1.52;1.42;;;;;;;;;;5061986;28;20733;-61
2023/06/10 03:40:22;;;;;;;1.45;1.13;;;;;;;;;;5063099;28;20036;-61
2023/06/10 03:42:48;;;;;;;1.70;1.33;;;;;;;;;;5062643;28;20040;-61
2023/06/10 03:45:14;;;;;;;1.30;1.20;;;;;;;;;;5062908;28;20294;-61
2023/06/10 03:47:40;;;;;;;1.98;1.77;;;;;;;;;;5063172;28;20535;-61
2023/06/10 03:50:10;;;;;;;1.73;1.63;;;;;;;;;;5062705;28;20554;-61
2023/06/10 03:52:36;;;;;;;1.77;1.55;;;;;;;;;;5062060;28;20055;-62
2023/06/10 03:55:03;;;;;;;3.75;2.13;;;;;;;;;;5062574;28;20049;-61
2023/06/10 03:57:29;;;;;;;2.85;2.10;;;;;;;;;;5044845;28;20437;-61
2023/06/10 03:59:56;;;;;;;1.92;1.73;;;;;;;;;;5064985;28;20149;-61
2023/06/10 04:02:22;;;;;;;2.50;2.30;;;;;;;;;;5067187;28;20064;-61
2023/06/10 04:04:48;;;;;;;2.70;2.13;;;;;;;;;;5066805;28;20075;-61
2023/06/10 04:07:14;;;;;;;3.17;2.15;;;;;;;;;;5066980;28;20044;-61
2023/06/10 04:09:40;;;;;;;2.47;1.90;;;;;;;;;;5066825;28;20106;-61
2023/06/10 04:12:08;;;;;;;2.75;2.08;;;;;;;;;;5066191;28;20044;-61
2023/06/10 04:14:37;;;;;;;3.33;2.22;;;;;;;;;;5066186;28;20406;-61
2023/06/10 04:17:06;;;;;;;1.95;1.48;;;;;;;;;;5066623;28;20462;-61
2023/06/10 04:19:32;;;;;;;2.25;1.60;;;;;;;;;;5066645;28;20520;-61
2023/06/10 04:21:58;;;;;;;1.70;1.50;;;;;;;;;;5065433;28;20082;-61
2023/06/10 04:24:24;;;;;;;2.45;1.63;;;;;;;;;;5066811;28;20157;-61
2023/06/10 04:26:50;;;;;;;1.73;1.63;;;;;;;;;;5065789;28;20510;-61
2023/06/10 04:29:16;;;;;;;2.63;1.90;;;;;;;;;;5066368;28;20048;-61
2023/06/10 04:31:42;;;;;;;1.92;1.73;;;;;;;;;;5066954;28;20642;-61
2023/06/10 04:34:08;;;;;;;2.10;1.90;;;;;;;;;;5065296;28;20090;-61
2023/06/10 04:36:34;;;;;;;3.40;2.35;;;;;;;;;;5066180;28;20400;-62
2023/06/10 04:39:01;;;;;;;2.67;1.67;;;;;;;;;;5065740;28;20036;-61
2023/06/10 04:41:27;;;;;;;1.95;1.85;;;;;;;;;;5065614;28;20045;-61
2023/06/10 04:43:53;;;;;;;2.28;1.83;;;;;;;;;;5065653;28;20511;-61
2023/06/10 04:46:19;;;;;;;1.92;1.65;;;;;;;;;;5066170;28;20109;-61
2023/06/10 04:48:46;;;;;;;2.15;1.95;;;;;;;;;;5064888;28;20488;-61
2023/06/10 04:51:13;;;;;;;3.13;2.30;;;;;;;;;;5066839;28;20418;-61
2023/06/10 04:53:40;;;;;;;3.35;1.92;;;;;;;;;;5065887;28;20464;-61
2023/06/10 04:56:07;;;;;;;2.65;1.98;;;;;;;;;;5065250;28;20210;-61
2023/06/10 04:58:33;;;;;;;3.40;2.45;;;;;;;;;;5066044;28;20408;-61
2023/06/10 05:00:59;;;;;;;2.00;1.73;;;;;;;;;;5065499;28;20048;-61
2023/06/10 05:03:25;;;;;;;2.08;1.70;;;;;;;;;;5065551;28;20048;-61
2023/06/10 05:05:51;;;;;;;2.08;1.83;;;;;;;;;;5065467;28;20044;-61
2023/06/10 05:08:18;;;;;;;3.90;2.63;;;;;;;;;;5065448;28;20583;-61
2023/06/10 05:10:44;;;;;;;2.75;1.85;;;;;;;;;;5065016;28;20059;-61
2023/06/10 05:13:10;;;;;;;4.43;2.67;;;;;;;;;;5065807;28;20407;-61
2023/06/10 05:15:37;;;;;;;2.67;2.28;;;;;;;;;;5047455;28;20047;-61
2023/06/10 05:18:03;;;;;;;2.45;1.98;;;;;;;;;;5064523;28;20360;-61
2023/06/10 05:20:29;;;;;;;2.50;2.30;;;;;;;;;;5065236;28;20048;-61
2023/06/10 05:22:55;;;;;;;3.00;2.47;;;;;;;;;;5065123;28;20040;-61
2023/06/10 05:25:23;;;;;;;2.25;1.70;;;;;;;;;;5064809;28;20116;-61
2023/06/10 05:27:49;;;;;;;1.80;1.70;;;;;;;;;;5064907;28;20564;-61
2023/06/10 05:30:18;;;;;;;3.10;2.15;;;;;;;;;;5065173;28;20381;-61
2023/06/10 05:32:44;;;;;;;3.20;2.00;;;;;;;;;;5066049;28;20181;-61
2023/06/10 05:35:10;;;;;;;3.97;2.40;;;;;;;;;;5065425;28;20166;-61
2023/06/10 05:37:36;;;;;;;1.95;1.80;;;;;;;;;;5064829;28;20135;-60
2023/06/10 05:40:04;;;;;;;2.30;1.80;;;;;;;;;;5064670;28;20295;-61
2023/06/10 05:42:30;;;;;;;2.35;2.15;;;;;;;;;;5065323;28;20076;-61
2023/06/10 05:44:56;;;;;;;2.50;2.15;;;;;;;;;;5063834;28;20166;-61
2023/06/10 05:47:22;;;;;;;2.55;2.17;;;;;;;;;;5064964;28;20070;-61
2023/06/10 05:49:49;;;;;;;2.60;1.80;;;;;;;;;;5064970;28;20471;-61
2023/06/10 05:52:15;;;;;;;1.98;1.60;;;;;;;;;;5064481;28;20049;-61
2023/06/10 05:54:41;;;;;;;1.67;1.58;;;;;;;;;;5065485;28;20049;-61
2023/06/10 05:57:07;;;;;;;1.55;1.30;;;;;;;;;;5064486;28;20038;-61
2023/06/10 05:59:33;;;;;;;2.22;1.90;;;;;;;;;;5063953;28;20454;-61
2023/06/10 06:01:59;;;;;;;4.63;2.40;;;;;;;;;;5064223;28;20036;-61
2023/06/10 06:04:25;;;;;;;2.45;2.22;;;;;;;;;;5064520;28;20028;-61
2023/06/10 06:06:52;;;;;;;1.90;1.73;;;;;;;;;;5063617;28;20044;-61
2023/06/10 06:09:17;;;;;;;2.72;2.42;;;;;;;;;;5064642;28;20064;-62
2023/06/10 06:11:43;;;;;;;3.05;2.75;;;;;;;;;;5064974;28;20468;-61
2023/06/10 06:14:09;;;;;;;3.08;2.50;;;;;;;;;;5063491;28;20121;-61
2023/06/10 06:16:36;;;;;;;5.60;2.78;;;;;;;;;;5064780;28;20036;-61
2023/06/10 06:19:02;;;;;;;3.72;2.80;;;;;;;;;;5063668;28;20036;-61
2023/06/10 06:21:27;;;;;;;3.22;2.20;;;;;;;;;;5063242;28;20075;-61
2023/06/10 06:23:54;;;;;;;2.22;2.03;;;;;;;;;;5064108;28;20048;-61
2023/06/10 06:26:20;;;;;;;2.95;2.10;;;;;;;;;;5063573;28;20531;-62
2023/06/10 06:28:46;;;;;;;2.30;1.77;;;;;;;;;;5063649;28;20292;-61
2023/06/10 06:31:12;;;;;;;1.67;1.50;;;;;;;;;;5064555;28;20048;-61
2023/06/10 06:33:38;;;;;;;1.83;1.67;;;;;;;;;;5063122;28;20429;-61
2023/06/10 06:36:04;;;;;;;1.67;1.58;;;;;;;;;;5063953;28;20045;-61
2023/06/10 06:38:30;;;;;;;2.08;1.50;;;;;;;;;;5064143;28;20461;-62
2023/06/10 06:40:56;;;;;;;2.13;1.23;;;;;;;;;;5062776;28;20076;-61
2023/06/10 06:43:22;;;;;;;1.88;1.33;;;;;;;;;;5063783;28;20127;-61
2023/06/10 06:45:48;;;;;;;2.45;1.65;;;;;;;;;;5063321;28;20240;-62
2023/06/10 06:48:14;;;;;;;2.20;1.65;;;;;;;;;;5063432;28;20502;-61
2023/06/10 06:50:41;;;;;;;2.13;1.80;;;;;;;;;;5064434;28;20044;-61
2023/06/10 06:53:07;;;;;;;1.40;1.20;;;;;;;;;;5063292;28;20040;-61
2023/06/10 06:55:33;;;;;;;2.00;1.77;;;;;;;;;;5062882;28;20044;-61
2023/06/10 06:58:02;;;;;;;3.22;1.60;;;;;;;;;;5063074;28;20094;-61
2023/06/10 07:00:28;;;;;;;2.65;2.25;;;;;;;;;;5063716;28;20044;-62
2023/06/10 07:02:54;;;;;;;2.53;2.33;;;;;;;;;;5062553;28;20117;-61
2023/06/10 07:05:21;;;;;;;2.28;2.05;;;;;;;;;;5064032;28;20050;-61
2023/06/10 07:07:47;;;;;;;4.80;2.20;;;;;;;;;;5063301;28;20117;-61
2023/06/10 07:10:14;;;;;;;2.28;1.92;;;;;;;;;;5063078;28;20052;-61
2023/06/10 07:12:40;;;;;;;2.85;2.00;;;;;;;;;;5063669;28;20534;-61
2023/06/10 07:15:07;;;;;;;2.70;1.88;;;;;;;;;;5062887;28;20086;-61
2023/06/10 07:17:34;;;;;;;1.58;1.48;;;;;;;;;;5062594;28;20577;-61
2023/06/10 07:20:00;;;;;;;1.80;1.67;;;;;;;;;;5062925;28;20037;-61
2023/06/10 07:22:26;;;;;;;4.15;2.03;;;;;;;;;;5063279;28;20045;-61
2023/06/10 07:24:54;;;;;;;1.90;1.70;;;;;;;;;;5062329;28;20044;-61
2023/06/10 07:27:20;;;;;;;2.40;2.03;;;;;;;;;;5063645;28;20472;-62
2023/06/10 07:29:46;;;;;;;1.40;1.30;;;;;;;;;;5061914;28;20040;-61
2023/06/10 07:32:12;;;;;;;1.52;1.42;;;;;;;;;;5063752;28;20048;-61
2023/06/10 07:34:38;;;;;;;1.25;1.10;;;;;;;;;;5063269;28;20135;-61
2023/06/10 07:37:04;;;;;;;2.45;1.70;;;;;;;;;;5062116;28;20040;-61
2023/06/10 07:39:30;;;;;;;1.75;1.40;;;;;;;;;;5063176;28;20044;-61
2023/06/10 07:41:57;;;;;;;2.25;1.42;;;;;;;;;;5062835;28;20370;-61
2023/06/10 07:44:23;;;;;;;2.50;1.83;;;;;;;;;;5062134;28;20044;-62
2023/06/10 07:46:49;;;;;;;2.25;2.05;;;;;;;;;;5062540;28;20551;-62
2023/06/10 07:49:15;;;;;;;2.85;2.08;;;;;;;;;;5063141;28;20099;-62
2023/06/10 07:51:41;;;;;;;2.97;1.77;;;;;;;;;;5062772;28;20120;-61
2023/06/10 07:54:07;;;;;;;2.20;1.75;;;;;;;;;;5062461;28;20507;-61
2023/06/10 07:56:33;;;;;;;2.10;1.90;;;;;;;;;;5063029;28;20052;-61
2023/06/10 07:58:59;;;;;;;1.88;1.77;;;;;;;;;;5061515;28;20052;-61
2023/06/10 08:01:25;;;;;;;2.33;2.00;;;;;;;;;;5062942;28;20655;-61
2023/06/10 08:03:51;;;;;;;4.05;1.90;;;;;;;;;;5062351;28;20040;-61
2023/06/10 08:06:17;;;;;;;2.45;2.00;;;;;;;;;;5044200;28;20058;-61
2023/06/10 08:08:44;;;;;;;1.75;1.40;;;;;;;;;;5063387;28;20447;-62
2023/06/10 08:11:13;;;;;;;1.95;1.60;;;;;;;;;;5062959;28;20046;-62
2023/06/10 08:13:39;;;;;;;4.55;1.98;;;;;;;;;;5062044;28;20103;-62
2023/06/10 08:16:05;;;;;;;1.55;1.45;;;;;;;;;;5062382;28;20343;-62
2023/06/10 08:18:32;;;;;;;4.03;2.50;;;;;;;;;;5062856;28;20072;-62
2023/06/10 08:20:58;;;;;;;2.30;1.80;;;;;;;;;;5061677;28;20156;-62
2023/06/10 08:23:24;;;;;;;2.90;2.35;;;;;;;;;;5062745;28;20550;-62
2023/06/10 08:25:50;;;;;;;2.05;1.88;;;;;;;;;;5062199;28;20577;-61
2023/06/10 08:28:16;;;;;;;1.95;1.80;;;;;;;;;;5062629;28;20048;-61
2023/06/10 08:30:43;;;;;;;4.40;2.78;;;;;;;;;;5063547;28;20032;-61
2023/06/10 08:33:09;;;;;;;2.83;1.92;;;;;;;;;;5061708;28;20040;-62
2023/06/10 08:35:35;;;;;;;2.20;1.70;;;;;;;;;;5062842;28;20143;-62
2023/06/10 08:38:01;;;;;;;2.63;1.73;;;;;;;;;;5062013;28;20131;-62
2023/06/10 08:40:27;;;;;;;2.78;2.47;;;;;;;;;;5061672;28;20044;-61
2023/06/10 08:42:59;;;;;;;2.38;1.98;;;;;;;;;;5062262;28;20041;-61
2023/06/10 08:45:31;;;;;;;1.95;1.75;;;;;;;;;;5064410;28;20407;-61
2023/06/10 08:47:57;;;;;;;;;;;;;;;;;;5065531;28;20052;-61
2023/06/10 08:50:23;;;;;;;2.75;2.20;;;;;;;;;;5066228;28;20378;-61
2023/06/10 08:52:52;;;;;;;2.53;2.10;;;;;;;;;;5047646;28;20045;-62
2023/06/10 08:55:29;;;;;;;1.80;1.70;;;;;;;;;;5065367;28;20048;-62
2023/06/10 08:57:55;;;;;;;2.40;1.92;;;;;;;;;;5065618;28;20109;-62
2023/06/10 09:00:21;;;;;;;2.38;1.90;;;;;;;;;;5066096;28;20470;-62
2023/06/10 09:02:47;;;;;;;1.77;1.60;;;;;;;;;;5065086;28;20468;-62
2023/06/10 09:05:14;;;;;;;2.38;2.15;;;;;;;;;;5066603;28;20135;-62
2023/06/10 09:07:41;;;;;;;1.60;1.50;;;;;;;;;;5047961;28;20068;-62
2023/06/10 09:10:07;;;;;;;2.22;2.03;;;;;;;;;;5064513;28;20040;-62
2023/06/10 09:12:34;;;;;;;2.33;1.85;;;;;;;;;;5066041;28;20056;-62
2023/06/10 09:15:01;;;;;;;3.25;2.80;;;;;;;;;;5065478;28;20502;-62
2023/06/10 09:17:27;;;;;;;2.35;2.05;;;;;;;;;;5064724;28;20037;-62
2023/06/10 09:19:55;;;;;;;2.75;1.95;;;;;;;;;;5065167;28;20041;-62
2023/06/10 09:22:22;;;;;;;2.30;2.10;;;;;;;;;;5064606;28;20046;-62
2023/06/10 09:24:48;;;;;;;2.53;2.00;;;;;;;;;;5065198;28;20076;-62
2023/06/10 09:27:14;;;;;;;2.97;2.20;;;;;;;;;;5065910;28;20049;-62
2023/06/10 09:29:48;;;;;;;2.60;1.52;;;;;;;;;;5065079;28;20124;-62
2023/06/10 09:32:14;;;;;;;2.45;1.60;;;;;;;;;;5065815;28;20126;-62
2023/06/10 09:34:41;;;;;;;1.88;1.70;;;;;;;;;;5065755;28;20117;-62
2023/06/10 09:37:08;;;;;;;2.03;1.83;;;;;;;;;;5064331;28;20080;-62
2023/06/10 09:39:34;;;;;;;2.28;1.70;;;;;;;;;;5065149;28;20547;-62
2023/06/10 09:42:00;;;;;;;2.10;1.88;;;;;;;;;;5064903;28;20051;-62
2023/06/10 09:44:26;;;;;;;2.17;1.83;;;;;;;;;;5064398;28;20516;-62
2023/06/10 09:46:54;;;;;;;2.42;2.15;;;;;;;;;;5046736;28;20450;-61
2023/06/10 09:49:20;;;;;;;3.75;2.25;;;;;;;;;;5064771;28;20488;-61
2023/06/10 09:51:53;;;;;;;3.80;2.10;;;;;;;;;;5063765;28;20531;-61
2023/06/10 09:54:19;;;;;;;3.60;1.90;;;;;;;;;;5065045;28;20167;-61
2023/06/10 09:56:49;;;;;;;2.47;2.00;;;;;;;;;;5063344;28;20555;-62
2023/06/10 09:59:16;;;;;;;2.05;1.60;;;;;;;;;;5063958;28;20551;-62
2023/06/10 10:01:42;;;;;;;3.13;2.10;;;;;;;;;;5065257;28;20129;-62
2023/06/10 10:04:08;;;;;;;1.90;1.67;;;;;;;;;;5064187;28;20080;-62
2023/06/10 10:06:34;;;;;;;1.90;1.70;;;;;;;;;;5063960;28;20048;-62
2023/06/10 10:09:01;;;;;;;3.30;1.63;;;;;;;;;;5063997;28;20355;-62
2023/06/10 10:11:27;;;;;;;2.55;1.98;;;;;;;;;;5063907;28;20047;-62
2023/06/10 10:13:53;;;;;;;3.03;1.73;;;;;;;;;;5064098;28;20048;-62
2023/06/10 10:16:21;;;;;;;2.58;1.85;;;;;;;;;;5064240;28;20045;-62
2023/06/10 10:18:55;;;;;;;2.30;2.10;;;;;;;;;;5063469;28;20048;-62
2023/06/10 10:21:26;;;;;;;2.67;2.42;;;;;;;;;;5064466;28;20048;-62
2023/06/10 10:24:01;;;;;;;2.63;2.35;;;;;;;;;;5064249;28;20036;-62
2023/06/10 10:26:28;;;;;;;2.17;1.88;;;;;;;;;;5063305;28;20048;-62
2023/06/10 10:29:00;;;;;;;2.95;1.80;;;;;;;;;;5063525;28;20053;-62
2023/06/10 10:31:28;;;;;;;2.47;1.98;;;;;;;;;;5064079;28;20055;-62
2023/06/10 10:33:54;;;;;;;2.95;2.25;;;;;;;;;;5063263;28;20407;-62
2023/06/10 10:36:20;;;;;;;2.28;1.92;;;;;;;;;;5063761;28;20492;-62
2023/06/10 10:38:47;;;;;;;2.45;2.22;;;;;;;;;;5063595;28;20351;-62
2023/06/10 10:41:13;;;;;;;3.33;2.13;;;;;;;;;;5063637;28;20348;-62
2023/06/10 10:43:39;;;;;;;2.17;1.77;;;;;;;;;;5063583;28;20048;-62
2023/06/10 10:46:09;;;;;;;2.30;1.90;;;;;;;;;;5063541;28;20102;-62
2023/06/10 10:48:37;;;;;;;2.50;2.20;;;;;;;;;;5063763;28;20699;-62
2023/06/10 10:51:03;;;;;;;3.63;2.15;;;;;;;;;;5063450;28;20182;-62
2023/06/10 10:53:30;;;;;;;2.30;2.10;;;;;;;;;;5063644;28;20103;-62
2023/06/10 10:56:18;;;;;;;2.75;1.90;;;;;;;;;;5062601;28;20119;-62
2023/06/10 10:59:01;;;;;;;2.20;1.98;;;;;;;;;;5064433;28;20102;-62
2023/06/10 11:01:39;;;;;;;2.65;1.98;;;;;;;;;;5063304;28;20040;-62
2023/06/10 11:04:08;;;;;;;3.15;1.95;;;;;;;;;;5063425;28;20175;-62
2023/06/10 11:06:34;;;;;;;2.20;1.88;;;;;;;;;;5063503;28;20048;-62
2023/06/10 11:09:00;;;;;;;2.25;1.77;;;;;;;;;;5062121;28;20063;-62
2023/06/10 11:11:27;;;;;;;1.75;1.50;;;;;;;;;;5063604;28;20416;-62
2023/06/10 11:14:08;;;;;;;2.28;2.08;;;;;;;;;;5062902;28;20037;-62
2023/06/10 11:16:44;;;;;;;1.95;1.45;;;;;;;;;;5062760;28;20419;-62
2023/06/10 11:19:10;;;;;;;1.90;1.60;;;;;;;;;;5063213;28;20053;-62
2023/06/10 11:21:54;;;;;;;2.67;1.80;;;;;;;;;;5063268;28;20045;-62
2023/06/10 11:24:20;;;;;;;1.75;1.63;;;;;;;;;;5063260;28;20040;-62
2023/06/10 11:26:47;;;;;;;4.18;2.55;;;;;;;;;;5062815;28;20051;-62
2023/06/10 11:29:15;;;;;;;2.95;1.92;;;;;;;;;;5062812;28;20047;-62
2023/06/10 11:31:41;;;;;;;2.20;2.00;;;;;;;;;;5063753;28;20041;-62
2023/06/10 11:34:07;;;;;;;4.10;1.85;;;;;;;;;;5062797;28;20090;-62
2023/06/10 11:36:34;;;;;;;2.72;2.40;;;;;;;;;;5062374;28;20538;-62
2023/06/10 11:39:04;;;;;;;1.58;1.48;;;;;;;;;;5062803;28;20053;-62
2023/06/10 11:41:31;;;;;;;2.33;2.05;;;;;;;;;;5062790;28;20037;-62
2023/06/10 11:43:58;;;;;;;2.15;1.95;;;;;;;;;;5061816;28;20063;-62
2023/06/10 11:46:27;;;;;;;3.20;1.70;;;;;;;;;;5062970;28;20044;-62
2023/06/10 11:48:56;;;;;;;2.03;1.83;;;;;;;;;;5062644;28;20504;-62
2023/06/10 11:51:25;;;;;;;2.08;1.88;;;;;;;;;;5062348;28;20048;-62
2023/06/10 11:53:53;;;;;;;2.83;1.83;;;;;;;;;;5062426;28;20040;-62
2023/06/10 11:56:23;;;;;;;2.10;1.90;;;;;;;;;;5062677;28;20253;-62
2023/06/10 11:58:53;;;;;;;1.70;1.60;;;;;;;;;;5061974;28;20465;-62
2023/06/10 12:01:21;;;;;;;2.75;1.92;;;;;;;;;;5062791;28;20048;-62
2023/06/10 12:03:47;;;;;;;1.50;1.40;;;;;;;;;;5062491;28;20041;-62
2023/06/10 12:06:13;;;;;;;2.08;1.95;;;;;;;;;;5062703;28;20063;-62
2023/06/10 12:08:43;;;;;;;2.85;2.17;;;;;;;;;;5062853;28;20064;-62
2023/06/10 12:11:09;;;;;;;1.75;1.65;;;;;;;;;;5061546;28;20126;-62
2023/06/10 12:13:35;;;;;;;2.28;1.70;;;;;;;;;;5062560;28;20351;-62
2023/06/10 12:16:08;;;;;;;2.10;1.90;;;;;;;;;;5062359;28;20052;-62
2023/06/10 12:18:34;;;;;;;2.03;1.63;;;;;;;;;;5061781;28;20041;-62
2023/06/10 12:21:00;;;;;;;2.80;1.80;;;;;;;;;;5065118;28;20395;-63
2023/06/10 12:23:26;;;;;;;2.30;1.80;;;;;;;;;;5066754;28;20051;-62
2023/06/10 12:25:53;;;;;;;2.65;1.88;;;;;;;;;;5065449;28;20186;-62
2023/06/10 12:28:23;;;;;;;3.63;1.90;;;;;;;;;;5048377;28;20254;-63
2023/06/10 12:30:49;;;;;;;2.92;2.03;;;;;;;;;;5066135;28;20535;-63
2023/06/10 12:33:19;;;;;;;2.13;1.70;;;;;;;;;;5066040;28;20476;-62
2023/06/10 12:35:49;;;;;;;2.22;2.00;;;;;;;;;;5066770;28;20048;-62
2023/06/10 12:38:15;;;;;;;3.53;2.10;;;;;;;;;;5066803;28;20044;-62
2023/06/10 12:40:41;;;;;;;2.80;2.20;;;;;;;;;;5066315;28;20045;-62
2023/06/10 12:43:07;;;;;;;2.47;2.25;;;;;;;;;;5065871;28;20036;-62
2023/06/10 12:45:34;;;;;;;3.35;2.38;;;;;;;;;;5066016;28;20531;-62
2023/06/10 12:48:08;;;;;;;3.00;2.70;;;;;;;;;;5064930;28;20123;-62
2023/06/10 12:50:34;;;;;;;3.28;2.53;;;;;;;;;;5065950;28;20044;-62
2023/06/10 12:53:01;;;;;;;3.30;2.40;;;;;;;;;;5065996;28;20049;-62
2023/06/10 12:55:28;;;;;;;2.58;2.25;;;;;;;;;;5065566;28;20036;-62
2023/06/10 12:57:55;;;;;;;2.47;2.28;;;;;;;;;;5065762;28;20055;-62
2023/06/10 13:00:21;;;;;;;2.50;2.30;;;;;;;;;;5065504;28;20097;-63
2023/06/10 13:02:48;;;;;;;4.40;2.42;;;;;;;;;;5065970;28;20051;-62
2023/06/10 13:05:14;;;;;;;5.00;2.40;;;;;;;;;;5066018;28;20243;-62
2023/06/10 13:07:41;;;;;;;5.40;2.83;;;;;;;;;;5065044;28;20605;-62
2023/06/10 13:10:07;;;;;;;2.55;2.17;;;;;;;;;;5065980;28;20084;-63
2023/06/10 13:12:33;;;;;;;2.47;2.28;;;;;;;;;;5067229;28;20052;-63
2023/06/10 13:15:01;;;;;;;3.28;2.13;;;;;;;;;;5064947;28;20044;-62
2023/06/10 13:17:27;;;;;;;3.58;2.30;;;;;;;;;;5065405;28;20404;-62
2023/06/10 13:19:53;;;;;;;4.22;2.38;;;;;;;;;;5064914;28;20048;-63
2023/06/10 13:22:20;;;;;;;2.70;2.10;;;;;;;;;;5064801;28;20044;-63
2023/06/10 13:24:46;;;;;;;2.80;2.00;;;;;;;;;;5065504;28;20048;-62
2023/06/10 13:27:13;;;;;;;4.40;2.70;;;;;;;;;;5065887;28;20118;-62
2023/06/10 13:29:40;;;;;;;5.13;2.30;;;;;;;;;;5064598;28;20052;-62
2023/06/10 13:32:06;;;;;;;5.10;2.78;;;;;;;;;;5064893;28;20040;-62
2023/06/10 13:34:32;;;;;;;2.47;2.28;;;;;;;;;;5065109;28;20083;-62
2023/06/10 13:36:59;;;;;;;3.50;2.00;;;;;;;;;;5064305;28;20052;-62
2023/06/10 13:39:25;;;;;;;3.50;2.53;;;;;;;;;;5065078;28;20045;-62
2023/06/10 13:41:51;;;;;;;5.88;2.45;;;;;;;;;;5065149;28;20067;-62
2023/06/10 13:44:17;;;;;;;3.92;2.83;;;;;;;;;;5064412;28;20037;-62
2023/06/10 13:46:43;;;;;;;3.17;2.25;;;;;;;;;;5065918;28;20237;-62
2023/06/10 13:49:09;;;;;;;3.28;1.77;;;;;;;;;;5064594;28;20048;-62
2023/06/10 13:51:35;;;;;;;2.17;1.80;;;;;;;;;;5064455;28;20357;-62
2023/06/10 13:54:01;;;;;;;4.68;2.42;;;;;;;;;;5064668;28;20083;-62
2023/06/10 13:56:28;;;;;;;3.13;2.30;;;;;;;;;;5064143;28;20040;-62
2023/06/10 13:58:54;;;;;;;2.40;2.20;;;;;;;;;;5064333;28;20044;-62
2023/06/10 14:01:20;;;;;;;2.78;1.98;;;;;;;;;;5064778;28;20036;-63
2023/06/10 14:03:46;;;;;;;2.15;1.40;;;;;;;;;;5063633;28;20047;-62
2023/06/10 14:06:18;;;;;;;2.95;2.08;;;;;;;;;;5065148;28;20040;-63
2023/06/10 14:08:44;;;;;;;;;;;;;;;;;;5065478;28;20060;-62
2023/06/10 14:11:10;;;;;;;3.13;2.22;;;;;;;;;;5063976;28;19924;-62
2023/06/10 14:13:38;;;;;;;3.40;2.53;;;;;;;;;;5064323;28;20526;-62
2023/06/10 14:16:04;;;;;;;3.03;2.15;;;;;;;;;;5064198;28;20048;-62
2023/06/10 14:18:31;;;;;;;2.33;2.08;;;;;;;;;;5063932;28;20056;-63
2023/06/10 14:20:57;;;;;;;3.75;2.20;;;;;;;;;;5064225;28;20503;-63
2023/06/10 14:23:24;;;;;;;3.17;1.90;;;;;;;;;;5064440;28;20083;-63
2023/06/10 14:25:50;;;;;;;3.17;2.00;;;;;;;;;;5063316;28;20079;-62
2023/06/10 14:28:16;;;;;;;3.92;2.15;;;;;;;;;;5064062;28;20035;-63
2023/06/10 14:30:42;;;;;;;3.13;2.17;;;;;;;;;;5064647;28;20480;-63
2023/06/10 14:33:08;;;;;;;4.95;2.60;;;;;;;;;;5063095;28;20123;-63
2023/06/10 14:35:34;;;;;;;2.72;1.85;;;;;;;;;;5063978;28;20329;-63
2023/06/10 14:38:00;;;;;;;5.38;2.60;;;;;;;;;;5063584;28;20060;-63
2023/06/10 14:40:28;;;;;;;3.40;2.22;;;;;;;;;;5063212;28;20043;-63
2023/06/10 14:42:54;;;;;;;4.30;2.10;;;;;;;;;;5063012;28;20124;-63